Time;durP1;ratioP1;P1;durP2;ratioP2;P2;SDS_P1;SDS_P2;PMS_P1;PMS_P2;Temp;Humidity;BMP_temperature;BMP_pressure;BME280_temperature;BME280_humidity;BME280_pressure;Samples;Min_cycle;Max_cycle;Signal;HPM_P1;HPM_P2
2024/01/08 11:49:37;;;;;;;;;;;;;;;-6.91;86.47;100058.02;111258;1248;22529;-53
2024/01/08 11:52:05;;;;;;;;;;;;;;;-6.89;86.46;100060.52;111056;1248;24224;-44
2024/01/08 11:54:32;;;;;;;;;;;;;;;-6.90;86.23;100061.34;111602;1248;22477;-51
2024/01/08 11:56:58;;;;;;;;;;;;;;;-6.91;86.45;100062.61;110674;1249;22493;-47
2024/01/08 11:59:31;;;;;;;;;;;;;;;-6.92;86.59;100059.84;110865;1249;25412;-51
2024/01/08 12:02:11;;;;;;;;;;;;;;;-6.94;86.55;100060.78;110206;1249;22521;-52
2024/01/08 12:04:38;;;;;;;;;;;;;;;-6.96;86.48;100064.67;110699;1249;22488;-52
2024/01/08 12:07:05;;;;;;;;;;;;;;;-6.98;86.60;100070.98;110408;1249;22516;-44
2024/01/08 12:09:32;;;;;;;;;;;;;;;-7.00;86.69;100069.49;110994;1249;23230;-45
2024/01/08 12:12:05;;;;;;;;;;;;;;;-7.00;87.14;100068.02;110443;1249;22544;-46
2024/01/08 12:14:32;;;;;;;;;;;;;;;-6.98;87.28;100062.05;110414;1249;22655;-45
2024/01/08 12:16:59;;;;;;;;;;;;;;;-6.96;87.13;100061.63;110666;1249;22505;-52
2024/01/08 12:19:52;;;;;;;;;;;;;;;-6.98;86.95;100060.31;112939;1249;23240;-50
2024/01/08 12:22:20;;;;;;;;;;;;;;;-7.00;87.13;100063.95;111602;1249;22531;-46
2024/01/08 12:24:48;;;;;;;;;;;;;;;-6.98;87.50;100070.54;110420;1249;22488;-51
2024/01/08 12:27:16;;;;;;;;;;;;;;;-6.93;87.79;100072.84;110557;1248;22583;-44
2024/01/08 12:29:43;;;;;;;;;;;;;;;-6.92;87.73;100080.85;111786;1249;23250;-51
2024/01/08 12:32:10;;;;;;;;;;;;;;;-6.92;87.63;100086.78;111214;1249;22474;-46
2024/01/08 12:34:39;;;;;;;;;;;;;;;-6.94;87.58;100082.61;110529;1249;22627;-52
2024/01/08 12:37:06;;;;;;;;;;;;;;;-6.98;87.55;100083.20;111094;1249;22455;-51
2024/01/08 12:39:33;;;;;;;;;;;;;;;-7.03;87.52;100081.73;113076;1249;22383;-45
2024/01/08 12:42:05;;;;;;;;;;;;;;;-7.08;87.83;100087.48;111086;1249;25523;-51
2024/01/08 12:44:32;;;;;;;;;;;;;;;-7.12;88.07;100091.23;110476;1249;22601;-53
2024/01/08 12:46:59;;;;;;;;;;;;;;;-7.13;88.32;100091.70;110230;1249;25347;-45
2024/01/08 12:49:26;;;;;;;;;;;;;;;-7.12;88.59;100089.41;110379;1249;22507;-50
2024/01/08 12:51:54;;;;;;;;;;;;;;;-7.15;88.52;100090.58;110171;1249;22478;-47
2024/01/08 12:54:21;;;;;;;;;;;;;;;-7.18;88.61;100092.40;110439;1249;22500;-51
2024/01/08 12:56:51;;;;;;;;;;;;;;;-7.18;88.63;100097.98;110316;1249;22614;-53
2024/01/08 12:59:20;;;;;;;;;;;;;;;-7.21;88.30;100101.54;111063;1249;22538;-44
2024/01/08 13:01:47;;;;;;;;;;;;;;;-7.28;87.86;100107.02;110437;1249;24221;-52
2024/01/08 13:04:14;;;;;;;;;;;;;;;-7.33;88.09;100107.15;109954;1249;25278;-46
2024/01/08 13:06:41;;;;;;;;;;;;;;;-7.36;88.33;100109.61;110233;1249;25238;-51
2024/01/08 13:09:08;;;;;;;;;;;;;;;-7.38;88.55;100110.55;110058;1249;26459;-45
2024/01/08 13:11:36;;;;;;;;;;;;;;;-7.36;88.64;100108.46;110358;1249;25251;-51
2024/01/08 13:14:12;;;;;;;;;;;;;;;-7.35;88.65;100109.75;110434;1249;24250;-45
2024/01/08 13:16:42;;;;;;;;;;;;;;;-7.33;88.86;100112.09;110257;1249;22468;-52
2024/01/08 13:19:09;;;;;;;;;;;;;;;-7.32;88.95;100112.15;109971;1249;22542;-45
2024/01/08 13:21:40;;;;;;;;;;;;;;;-7.30;89.35;100114.15;110477;1248;24229;-46
2024/01/08 13:24:10;;;;;;;;;;;;;;;-7.32;89.55;100117.92;110214;1249;22598;-53
2024/01/08 13:26:37;;;;;;;;;;;;;;;-7.33;89.78;100116.80;110124;1249;22492;-52
2024/01/08 13:29:05;;;;;;;;;;;;;;;-7.35;89.88;100115.48;110298;1249;22482;-51
2024/01/08 13:31:33;;;;;;;;;;;;;;;-7.42;89.65;100123.31;110119;1249;24260;-44
2024/01/08 13:34:00;;;;;;;;;;;;;;;-7.50;89.83;100132.77;110341;1249;22482;-44
2024/01/08 13:36:27;;;;;;;;;;;;;;;-7.54;90.18;100134.86;110444;1249;24220;-46
2024/01/08 13:38:54;;;;;;;;;;;;;;;-7.55;90.22;100129.19;110448;1249;23257;-47
2024/01/08 13:41:21;;;;;;;;;;;;;;;-7.59;90.33;100133.00;110312;1249;22593;-45
2024/01/08 13:43:48;;;;;;;;;;;;;;;-7.64;90.35;100133.97;109893;1249;22491;-53
